To NAV CANADA Home Page Login to a new session Search on AWWS site Feedback and Comments Disclaimer Vers la page française équivalente Tips FAQ What's new on the site To the Forecasts and Observations / NOTAM section To "File a Flight Plan" website Publications and other links Update of the User's profile FIC Telephone Numbers My Weather Data Folder Route Weather Data Regional Weather Data Local Weather Data To the Forecasts and Observations / NOTAM section
Request Generated 05/03/2016 at 06:51:31 UTC . Weather information available at that time is displayed.

METAR/TAF

VANCOUVER/VANCOUVER INTL/BC    

METAR CYVR 030600Z 04005KT 30SM FEW120 BKN160 20/09 A2992 RMK AC2AC4
PRESFR SLP132 DENSITY ALT 600FT=
METAR CYVR 030500Z 31006KT 30SM BKN120 BKN170 16/12 A2990 RMK AC6AC1
SLP128 DENSITY ALT 100FT=
METAR CYVR 030400Z 31003KT 30SM FEW050TCU SCT130 BKN180 19/11 A2988
RMK TCU1AC3AC1 SLP120 DENSITY ALT 500FT=

TAF CYVR 030538Z 0306/0412 31006KT P6SM BKN120 BKN170
BECMG 0306/0308 09008KT
FM031500 08010KT P6SM BKN080 BKN200
BECMG 0318/0320 26010KT
FM040200 28008KT P6SM SCT070
FM040800 28015KT P6SM -SHRA SCT030 BKN080
RMK NXT FCST BY 030900Z=
Your time UTC time
Weather data provided by Environment Canada and NAV CANADA